Time;durP1;ratioP1;P1;durP2;ratioP2;P2;SDS_P1;SDS_P2;PMS_P1;PMS_P2;Temp;Humidity;BMP_temperature;BMP_pressure;BME280_temperature;BME280_humidity;BME280_pressure;Samples;Min_cycle;Max_cycle;Signal;HPM_P1;HPM_P2
2024/01/13 00:01:53;;;;;;;3.92;2.85;;;22.00;46.60;;;;;;4949020;28;92085;-59
2024/01/13 00:04:19;;;;;;;3.05;2.50;;;21.90;46.70;;;;;;4949475;28;93727;-59
2024/01/13 00:06:45;;;;;;;5.95;3.03;;;21.90;46.60;;;;;;4947795;28;93097;-59
2024/01/13 00:09:11;;;;;;;5.00;3.03;;;21.90;46.40;;;;;;4945793;28;93527;-59
2024/01/13 00:11:37;;;;;;;4.75;2.80;;;21.80;46.40;;;;;;4945967;28;92203;-59
2024/01/13 00:14:03;;;;;;;4.38;2.58;;;21.80;46.50;;;;;;4947749;28;93120;-59
2024/01/13 00:16:29;;;;;;;4.28;2.67;;;21.80;46.50;;;;;;4948492;28;94571;-59
2024/01/13 00:18:56;;;;;;;4.63;2.72;;;21.80;46.40;;;;;;4952601;28;92410;-59
2024/01/13 00:21:24;;;;;;;4.30;2.75;;;21.80;46.40;;;;;;4962022;28;92716;-58
2024/01/13 00:23:50;;;;;;;3.70;2.40;;;21.80;46.60;;;;;;4950773;28;93303;-59
2024/01/13 00:26:16;;;;;;;4.43;3.17;;;21.70;46.50;;;;;;4944186;28;92961;-59
2024/01/13 00:28:42;;;;;;;4.05;2.25;;;21.70;46.60;;;;;;4949335;28;92333;-59
2024/01/13 00:31:07;;;;;;;3.55;3.08;;;21.60;46.70;;;;;;4949631;28;92909;-58
2024/01/13 00:33:33;;;;;;;5.57;3.60;;;21.60;46.60;;;;;;4948777;28;95268;-58
2024/01/13 00:35:59;;;;;;;3.90;2.80;;;21.60;47.30;;;;;;4949175;28;94146;-58
2024/01/13 00:38:24;;;;;;;4.93;2.88;;;21.60;46.50;;;;;;4954470;28;92598;-59
2024/01/13 00:40:50;;;;;;;4.63;3.15;;;21.60;46.80;;;;;;4954893;28;92744;-58
2024/01/13 00:43:16;;;;;;;4.28;2.85;;;21.60;46.70;;;;;;4950391;28;92744;-58
2024/01/13 00:45:42;;;;;;;4.78;3.10;;;21.50;46.50;;;;;;4947258;28;92923;-59
2024/01/13 00:48:08;;;;;;;4.60;2.70;;;21.50;46.60;;;;;;4931789;28;92576;-60
2024/01/13 00:50:35;;;;;;;3.70;2.67;;;21.50;46.70;;;;;;4948639;28;91905;-59
2024/01/13 00:53:02;;;;;;;4.50;2.97;;;21.50;46.70;;;;;;4949299;28;93283;-58
2024/01/13 00:55:27;;;;;;;3.38;2.40;;;21.50;46.80;;;;;;4951075;28;92716;-59
2024/01/13 00:57:53;;;;;;;5.05;2.92;;;21.40;46.80;;;;;;4947595;28;93180;-58
2024/01/13 01:00:19;;;;;;;7.15;3.45;;;21.40;46.80;;;;;;4949099;28;92967;-58
2024/01/13 01:02:45;;;;;;;3.92;2.67;;;21.40;46.80;;;;;;4944266;28;93397;-58
2024/01/13 01:05:11;;;;;;;4.05;2.60;;;21.40;46.80;;;;;;4945192;28;92847;-59
2024/01/13 01:07:37;;;;;;;3.75;2.67;;;21.30;46.70;;;;;;4951768;28;92500;-59
2024/01/13 01:10:03;;;;;;;4.10;2.90;;;21.30;46.60;;;;;;4951680;28;92613;-59
2024/01/13 01:12:29;;;;;;;4.15;2.70;;;21.30;46.50;;;;;;4945498;28;94606;-59
2024/01/13 01:14:55;;;;;;;3.80;2.55;;;21.30;46.60;;;;;;4961725;28;93804;-59
2024/01/13 01:17:20;;;;;;;5.13;2.75;;;21.30;46.70;;;;;;4960935;28;92401;-59
2024/01/13 01:19:46;;;;;;;3.78;2.67;;;21.20;46.80;;;;;;4961505;28;92851;-59
2024/01/13 01:22:12;;;;;;;3.53;2.80;;;21.20;46.60;;;;;;4944955;28;94970;-58
2024/01/13 01:24:39;;;;;;;3.95;2.47;;;21.20;46.80;;;;;;4945681;28;94749;-59
2024/01/13 01:27:06;;;;;;;4.57;2.88;;;21.20;46.70;;;;;;4963544;28;93587;-59
2024/01/13 01:29:31;;;;;;;3.63;2.50;;;21.20;46.80;;;;;;4962453;28;92488;-59
2024/01/13 01:31:58;;;;;;;4.68;2.88;;;21.20;46.90;;;;;;4951351;28;94551;-58
2024/01/13 01:34:24;;;;;;;3.90;3.17;;;21.10;46.90;;;;;;4946959;28;92930;-59
2024/01/13 01:36:50;;;;;;;3.55;2.30;;;21.10;46.70;;;;;;4946995;28;92922;-59
2024/01/13 01:39:15;;;;;;;4.82;2.55;;;21.10;46.70;;;;;;4950169;28;91858;-58
2024/01/13 01:41:41;;;;;;;4.40;3.08;;;21.10;46.70;;;;;;4949581;28;92594;-60
2024/01/13 01:44:07;;;;;;;4.68;2.70;;;21.10;46.90;;;;;;4946161;28;93885;-59
2024/01/13 01:46:33;;;;;;;3.90;2.42;;;21.10;46.80;;;;;;4944288;28;93692;-58
2024/01/13 01:49:00;;;;;;;3.95;2.83;;;21.10;46.80;;;;;;4948212;28;93223;-59
2024/01/13 01:51:29;;;;;;;3.58;2.67;;;21.00;46.70;;;;;;4950000;28;93350;-59
2024/01/13 01:53:55;;;;;;;2.88;2.42;;;21.00;46.90;;;;;;4945043;28;96027;-59
2024/01/13 01:56:31;;;;;;;3.97;2.70;;;21.00;46.90;;;;;;4970891;28;92559;-58
2024/01/13 01:58:57;;;;;;;4.30;2.72;;;21.00;46.90;;;;;;4954099;28;92614;-59
2024/01/13 02:01:24;;;;;;;5.00;2.78;;;21.00;46.90;;;;;;4949859;28;93716;-59
2024/01/13 02:03:51;;;;;;;2.97;2.65;;;21.00;46.90;;;;;;4945568;28;93472;-59
2024/01/13 02:06:17;;;;;;;3.65;2.28;;;21.00;46.80;;;;;;4962047;28;92479;-58
2024/01/13 02:08:43;;;;;;;2.92;2.30;;;20.90;46.70;;;;;;4953106;28;92037;-58
2024/01/13 02:12:01;;;;;;;4.38;2.53;;;20.90;46.90;;;;;;4951355;28;93625;-58
2024/01/13 02:14:28;;;;;;;4.43;2.78;;;20.90;46.70;;;;;;4944472;28;94661;-59
2024/01/13 02:16:54;;;;;;;4.97;2.97;;;20.90;46.60;;;;;;4961415;28;92410;-59
2024/01/13 02:19:19;;;;;;;4.55;2.88;;;20.90;46.70;;;;;;4949397;28;92121;-59
2024/01/13 02:21:45;;;;;;;4.18;2.70;;;20.80;46.70;;;;;;4943590;28;92774;-59
2024/01/13 02:24:11;;;;;;;4.13;2.70;;;20.80;46.70;;;;;;4945459;28;92638;-59
2024/01/13 02:26:38;;;;;;;2.65;1.95;;;20.80;46.70;;;;;;4959716;28;92359;-59
2024/01/13 02:29:05;;;;;;;3.60;2.38;;;20.80;46.70;;;;;;4961653;28;93008;-59
2024/01/13 02:31:30;;;;;;;2.78;2.38;;;20.80;46.80;;;;;;4946893;28;93572;-59
2024/01/13 02:33:56;;;;;;;5.63;2.67;;;20.80;46.90;;;;;;4944907;28;93912;-59
2024/01/13 02:36:22;;;;;;;3.47;2.40;;;20.70;46.80;;;;;;4952947;28;93778;-58
2024/01/13 02:42:10;;;;;;;3.97;2.53;;;20.70;46.90;;;;;;4945682;28;92978;-58
2024/01/13 02:44:36;;;;;;;4.03;2.85;;;20.70;47.00;;;;;;4946786;28;93062;-58
2024/01/13 02:47:02;;;;;;;4.28;2.60;;;20.70;46.80;;;;;;4947154;28;92339;-59
2024/01/13 02:49:28;;;;;;;2.88;2.38;;;20.70;46.90;;;;;;4950080;28;92109;-59
2024/01/13 02:51:54;;;;;;;3.45;2.30;;;20.70;47.00;;;;;;4952489;28;93628;-58
2024/01/13 02:54:19;;;;;;;3.65;2.50;;;20.70;46.90;;;;;;4962356;28;92529;-58
2024/01/13 03:00:09;;;;;;;4.25;2.88;;;20.60;46.80;;;;;;4945595;28;92217;-58
2024/01/13 03:02:35;;;;;;;4.07;2.20;;;20.60;46.80;;;;;;4943793;28;94510;-59
2024/01/13 03:05:00;;;;;;;3.38;2.42;;;20.60;46.80;;;;;;4947281;28;93416;-58
2024/01/13 03:07:27;;;;;;;4.40;2.70;;;20.60;47.10;;;;;;4948381;28;92290;-58
2024/01/13 03:09:53;;;;;;;3.40;2.10;;;20.60;46.90;;;;;;4941858;28;92664;-59
2024/01/13 03:12:20;;;;;;;2.95;2.30;;;20.60;46.90;;;;;;4946233;28;94052;-58
2024/01/13 03:14:46;;;;;;;4.15;2.70;;;20.60;46.70;;;;;;4962040;28;95637;-59
2024/01/13 03:17:13;;;;;;;3.35;2.40;;;20.50;46.80;;;;;;4943608;28;92794;-59
2024/01/13 03:19:39;;;;;;;3.53;2.65;;;20.50;46.90;;;;;;4959741;28;92001;-59
2024/01/13 03:22:05;;;;;;;2.40;2.10;;;20.50;46.90;;;;;;4943612;28;92484;-59
2024/01/13 03:24:30;;;;;;;5.95;2.80;;;20.50;46.90;;;;;;4944069;28;93072;-59
2024/01/13 03:26:56;;;;;;;3.95;2.78;;;20.50;46.90;;;;;;4946460;28;93499;-59
2024/01/13 03:29:22;;;;;;;3.72;2.45;;;20.50;46.90;;;;;;4958904;28;92107;-59
2024/01/13 03:31:49;;;;;;;4.25;2.47;;;20.50;47.00;;;;;;4947723;28;93931;-59
2024/01/13 03:34:16;;;;;;;3.30;2.40;;;20.50;46.90;;;;;;4949013;28;93783;-59
2024/01/13 03:40:05;;;;;;;3.17;2.50;;;20.50;46.70;;;;;;4948984;28;92664;-59
2024/01/13 03:42:31;;;;;;;2.78;2.15;;;20.40;46.90;;;;;;4960148;28;93720;-59
2024/01/13 03:44:58;;;;;;;3.78;2.65;;;20.40;46.70;;;;;;4957504;28;92233;-59
2024/01/13 03:47:24;;;;;;;3.63;2.03;;;20.40;46.90;;;;;;4946058;28;92785;-59
2024/01/13 03:49:50;;;;;;;3.42;2.47;;;20.40;47.00;;;;;;4962037;28;92568;-59
2024/01/13 03:52:16;;;;;;;2.50;2.10;;;20.40;46.70;;;;;;4948173;28;93558;-58
2024/01/13 03:54:42;;;;;;;3.20;2.05;;;20.40;46.80;;;;;;4948581;28;93736;-59
2024/01/13 03:57:07;;;;;;;2.72;2.20;;;20.30;46.70;;;;;;4953096;28;92469;-58
2024/01/13 03:59:33;;;;;;;3.55;2.28;;;20.40;46.80;;;;;;4947350;28;92371;-59
2024/01/13 04:01:59;;;;;;;3.40;2.38;;;20.30;46.80;;;;;;4949417;28;92676;-59
2024/01/13 04:04:25;;;;;;;4.13;2.40;;;20.30;46.90;;;;;;4948311;28;94901;-59
2024/01/13 04:06:50;;;;;;;2.75;2.17;;;20.30;47.00;;;;;;4954621;28;92316;-59
2024/01/13 04:09:16;;;;;;;2.97;2.40;;;20.30;47.00;;;;;;4956138;28;91243;-59
2024/01/13 04:11:42;;;;;;;2.50;2.13;;;20.30;46.90;;;;;;4947709;28;92688;-59
2024/01/13 04:14:08;;;;;;;2.25;1.73;;;20.30;46.90;;;;;;4963042;28;93423;-59
2024/01/13 04:16:33;;;;;;;2.50;2.10;;;20.20;46.90;;;;;;4950962;28;93302;-59
2024/01/13 04:18:59;;;;;;;2.80;2.00;;;20.20;47.00;;;;;;4951065;28;92974;-59
2024/01/13 04:21:25;;;;;;;2.78;2.20;;;20.30;47.00;;;;;;4964425;28;95898;-59
2024/01/13 04:23:53;;;;;;;3.47;2.35;;;20.20;46.90;;;;;;4953045;28;94586;-59
2024/01/13 04:26:21;;;;;;;3.20;2.38;;;20.20;46.90;;;;;;4950169;28;92129;-59
2024/01/13 04:28:46;;;;;;;3.22;2.40;;;20.20;46.90;;;;;;4946343;28;92562;-59
2024/01/13 04:31:13;;;;;;;2.72;2.22;;;20.20;46.90;;;;;;4950848;28;92492;-58
2024/01/13 04:33:39;;;;;;;3.08;2.00;;;20.20;46.90;;;;;;4951548;28;93226;-59
2024/01/13 04:36:05;;;;;;;2.80;2.35;;;20.20;46.60;;;;;;4963485;28;92715;-59
2024/01/13 04:38:33;;;;;;;3.80;2.53;;;20.20;46.90;;;;;;4962607;28;92982;-59
2024/01/13 04:40:59;;;;;;;3.42;2.42;;;20.20;46.90;;;;;;4961446;28;95024;-59
2024/01/13 04:43:25;;;;;;;3.78;2.33;;;20.20;46.90;;;;;;4961048;28;93960;-58
2024/01/13 04:45:52;;;;;;;2.85;2.17;;;20.20;46.90;;;;;;4930488;28;92513;-59
2024/01/13 04:48:18;;;;;;;3.05;2.35;;;20.10;46.90;;;;;;4955553;28;92665;-58
2024/01/13 04:50:44;;;;;;;3.75;2.58;;;20.20;47.00;;;;;;4944970;28;95027;-59
2024/01/13 04:53:10;;;;;;;2.65;2.40;;;20.10;46.90;;;;;;4946510;28;93001;-58
2024/01/13 04:55:37;;;;;;;3.35;2.17;;;20.10;46.80;;;;;;4946022;28;92895;-58
2024/01/13 04:58:04;;;;;;;3.20;2.20;;;20.10;46.90;;;;;;4946009;28;91804;-59
2024/01/13 05:00:32;;;;;;;2.85;1.98;;;20.10;46.90;;;;;;4961030;28;94897;-58
2024/01/13 05:02:58;;;;;;;3.08;2.40;;;20.10;47.00;;;;;;4947529;28;94160;-59
2024/01/13 05:05:24;;;;;;;2.58;2.05;;;20.10;46.90;;;;;;4947156;28;93662;-58
2024/01/13 05:07:49;;;;;;;2.65;2.03;;;20.10;46.90;;;;;;4951898;28;92681;-59
2024/01/13 05:10:15;;;;;;;3.08;2.20;;;20.10;46.90;;;;;;4946811;28;93741;-59
2024/01/13 05:12:41;;;;;;;3.03;2.42;;;20.10;47.10;;;;;;4946823;28;93591;-59
2024/01/13 05:15:07;;;;;;;3.15;2.38;;;20.00;46.80;;;;;;4954128;28;92571;-58
2024/01/13 05:17:34;;;;;;;3.03;2.58;;;20.00;46.90;;;;;;4952643;28;92059;-58
2024/01/13 05:20:00;;;;;;;2.55;2.22;;;20.00;46.80;;;;;;4949568;28;93577;-59
2024/01/13 05:22:25;;;;;;;3.50;2.15;;;20.00;46.80;;;;;;4954134;28;93367;-58
2024/01/13 05:24:51;;;;;;;3.13;2.70;;;20.00;46.90;;;;;;4946718;28;92476;-58
2024/01/13 05:27:17;;;;;;;3.60;2.42;;;20.00;46.80;;;;;;4945996;28;92615;-58
2024/01/13 05:29:44;;;;;;;3.63;2.75;;;20.00;46.90;;;;;;4946735;28;94332;-58
2024/01/13 05:32:10;;;;;;;2.60;2.20;;;20.00;46.90;;;;;;4942909;28;94864;-58
2024/01/13 05:34:36;;;;;;;2.50;2.03;;;20.00;46.80;;;;;;4944152;28;92520;-58
2024/01/13 05:37:02;;;;;;;2.40;1.95;;;20.00;46.80;;;;;;4962398;28;92572;-59
2024/01/13 05:39:28;;;;;;;2.38;1.98;;;20.00;46.90;;;;;;4928641;28;94702;-59
2024/01/13 05:41:55;;;;;;;3.25;2.30;;;20.00;46.80;;;;;;4957537;28;92646;-59
2024/01/13 05:44:21;;;;;;;2.83;1.85;;;20.00;46.80;;;;;;4947349;28;93338;-58
2024/01/13 05:46:46;;;;;;;2.42;1.92;;;19.90;46.80;;;;;;4948013;28;91987;-59
2024/01/13 05:49:12;;;;;;;3.20;2.53;;;19.90;46.80;;;;;;4945808;28;93487;-59
2024/01/13 05:51:39;;;;;;;2.45;2.25;;;19.90;46.90;;;;;;4947752;28;92888;-58
2024/01/13 05:54:05;;;;;;;4.47;2.40;;;19.90;46.80;;;;;;4954164;28;93398;-59
2024/01/13 05:56:31;;;;;;;2.80;2.38;;;19.90;46.90;;;;;;4949015;28;92444;-59
2024/01/13 05:58:57;;;;;;;2.10;1.90;;;19.90;46.90;;;;;;4946202;28;92672;-58
2024/01/13 06:01:25;;;;;;;3.97;2.78;;;19.90;46.90;;;;;;4948260;28;92876;-59
2024/01/13 06:03:51;;;;;;;2.13;1.85;;;19.90;46.90;;;;;;4952906;28;92682;-58
2024/01/13 06:06:18;;;;;;;2.97;2.30;;;19.90;47.10;;;;;;4946554;28;92624;-58
2024/01/13 06:08:44;;;;;;;1.80;1.70;;;19.80;46.90;;;;;;4943863;28;93645;-59
2024/01/13 06:11:10;;;;;;;2.40;2.15;;;19.80;46.90;;;;;;4943543;28;95563;-59
2024/01/13 06:13:36;;;;;;;2.38;2.17;;;19.80;47.00;;;;;;4943941;28;92655;-59
2024/01/13 06:16:03;;;;;;;3.60;2.35;;;19.80;46.90;;;;;;4947366;28;92816;-59
2024/01/13 06:18:30;;;;;;;2.30;2.10;;;19.80;46.90;;;;;;4952337;28;94221;-59
2024/01/13 06:20:55;;;;;;;3.17;2.28;;;19.80;46.90;;;;;;4938093;28;94803;-58
2024/01/13 06:23:25;;;;;;;2.33;2.10;;;19.80;46.70;;;;;;4945824;28;92058;-58
2024/01/13 06:25:51;;;;;;;3.53;2.17;;;19.80;46.80;;;;;;4960774;28;93177;-59
2024/01/13 06:28:16;;;;;;;2.47;2.13;;;19.80;46.90;;;;;;4956981;28;93974;-59
2024/01/13 06:30:42;;;;;;;3.75;2.72;;;19.80;46.80;;;;;;4946998;28;92540;-59
2024/01/13 06:33:08;;;;;;;2.65;2.35;;;19.80;47.00;;;;;;4929364;28;92559;-59
2024/01/13 06:35:33;;;;;;;2.72;2.30;;;19.80;46.80;;;;;;4965727;28;91766;-59
2024/01/13 06:37:59;;;;;;;2.25;2.03;;;19.80;47.00;;;;;;4954730;28;92669;-59
2024/01/13 06:40:25;;;;;;;2.47;1.92;;;19.90;47.10;;;;;;4952974;28;92605;-59
2024/01/13 06:42:51;;;;;;;2.13;1.92;;;19.90;47.10;;;;;;4935452;28;94093;-59
2024/01/13 06:45:17;;;;;;;2.63;1.67;;;19.90;47.00;;;;;;4967994;28;92330;-59
2024/01/13 06:47:43;;;;;;;2.70;1.98;;;20.00;47.00;;;;;;4956535;28;93150;-59
2024/01/13 06:50:09;;;;;;;1.90;1.50;;;20.00;46.90;;;;;;4948695;28;92633;-59
2024/01/13 06:52:35;;;;;;;2.35;1.70;;;20.10;46.90;;;;;;4943832;28;92420;-59
2024/01/13 06:55:02;;;;;;;2.13;1.52;;;20.10;46.90;;;;;;4943688;28;92543;-59
2024/01/13 06:57:27;;;;;;;2.28;1.75;;;20.10;46.80;;;;;;4946063;28;93034;-59
2024/01/13 06:59:53;;;;;;;1.75;1.45;;;20.10;46.90;;;;;;4951871;28;98672;-59
2024/01/13 07:02:19;;;;;;;2.05;1.73;;;20.20;46.80;;;;;;4950472;28;92426;-59
2024/01/13 07:04:47;;;;;;;2.00;1.60;;;20.20;46.70;;;;;;4949827;28;92924;-59
2024/01/13 07:07:14;;;;;;;2.00;1.40;;;20.20;47.40;;;;;;4942849;28;94653;-59
2024/01/13 07:09:40;;;;;;;1.92;1.70;;;20.20;46.70;;;;;;4945752;28;93075;-59
2024/01/13 07:12:06;;;;;;;2.00;1.50;;;20.20;46.70;;;;;;4950742;28;92410;-59
2024/01/13 07:14:33;;;;;;;2.38;1.80;;;20.20;46.70;;;;;;4943896;28;92776;-59
2024/01/13 07:16:59;;;;;;;2.63;1.95;;;20.20;46.70;;;;;;4949560;28;93853;-59
2024/01/13 07:19:24;;;;;;;3.15;2.40;;;20.20;46.50;;;;;;4948412;28;93298;-59
2024/01/13 07:21:51;;;;;;;2.65;2.13;;;20.20;45.80;;;;;;4942481;28;92330;-59
2024/01/13 07:24:18;;;;;;;2.55;1.88;;;20.20;46.30;;;;;;4945475;28;91723;-59
2024/01/13 07:26:45;;;;;;;3.33;2.20;;;20.20;46.10;;;;;;4958791;28;94559;-59
2024/01/13 07:29:10;;;;;;;4.97;2.95;;;20.20;46.10;;;;;;4946103;28;93380;-59
2024/01/13 07:31:36;;;;;;;3.22;2.47;;;20.20;46.60;;;;;;4958952;28;93614;-59
2024/01/13 07:34:02;;;;;;;3.58;2.60;;;20.20;46.90;;;;;;4943240;28;92544;-59
2024/01/13 07:36:29;;;;;;;2.67;2.00;;;20.20;46.80;;;;;;4951690;28;93145;-59
2024/01/13 07:38:55;;;;;;;3.38;2.70;;;20.20;46.90;;;;;;4945561;28;97127;-59
2024/01/13 07:41:21;;;;;;;3.05;2.38;;;20.30;47.40;;;;;;4944970;28;92488;-59
2024/01/13 07:43:47;;;;;;;5.18;2.40;;;20.40;47.50;;;;;;4942498;28;93200;-59
2024/01/13 07:46:13;;;;;;;3.13;2.45;;;20.60;47.40;;;;;;4949506;28;92738;-59
2024/01/13 07:48:39;;;;;;;6.22;2.17;;;20.70;47.40;;;;;;4947409;28;94164;-58
2024/01/13 07:51:05;;;;;;;3.42;2.22;;;20.80;47.10;;;;;;4947678;28;92001;-59
2024/01/13 07:53:31;;;;;;;4.35;2.22;;;20.90;47.00;;;;;;4960044;28;93578;-59
2024/01/13 07:55:57;;;;;;;2.50;1.83;;;21.00;46.90;;;;;;4943665;28;94733;-59
2024/01/13 07:58:24;;;;;;;5.50;2.28;;;21.00;46.90;;;;;;4960974;28;94762;-60
2024/01/13 08:00:50;;;;;;;3.55;2.28;;;21.10;47.00;;;;;;4950411;28;93801;-59
2024/01/13 08:03:15;;;;;;;2.22;1.80;;;21.10;46.90;;;;;;4966654;28;92846;-60
2024/01/13 08:05:41;;;;;;;2.67;2.08;;;21.10;46.90;;;;;;4953504;28;94150;-60
2024/01/13 08:08:07;;;;;;;1.98;1.60;;;21.20;46.80;;;;;;4950608;28;93783;-59
2024/01/13 08:10:36;;;;;;;2.47;1.65;;;21.20;46.70;;;;;;4950588;28;93495;-60
2024/01/13 08:13:02;;;;;;;;;;;21.30;46.50;;;;;;4945139;28;92413;-60
2024/01/13 08:15:29;;;;;;;3.28;2.00;;;21.30;46.60;;;;;;4953856;28;93739;-59
2024/01/13 08:17:55;;;;;;;2.15;1.67;;;21.40;46.40;;;;;;4960830;28;94041;-59
2024/01/13 08:20:21;;;;;;;3.72;1.83;;;21.50;46.40;;;;;;4960697;28;93458;-59
2024/01/13 08:22:47;;;;;;;7.55;2.45;;;21.50;46.40;;;;;;4946858;28;92899;-60
2024/01/13 08:25:13;;;;;;;4.40;1.83;;;21.60;46.20;;;;;;4960953;28;94256;-59
2024/01/13 08:27:39;;;;;;;8.63;2.25;;;21.60;46.20;;;;;;4946848;28;92765;-59
2024/01/13 08:30:05;;;;;;;5.88;1.92;;;21.60;46.10;;;;;;4954059;28;92860;-60
2024/01/13 08:32:31;;;;;;;3.30;1.33;;;21.70;46.10;;;;;;4948546;28;93010;-59
2024/01/13 08:34:58;;;;;;;4.82;2.10;;;21.70;46.10;;;;;;4949836;28;93348;-58
2024/01/13 08:37:24;;;;;;;5.93;2.20;;;21.70;45.80;;;;;;4965120;28;93409;-59
2024/01/13 08:39:49;;;;;;;5.20;2.58;;;21.80;46.00;;;;;;4945405;28;92466;-59
2024/01/13 08:42:15;;;;;;;8.57;2.47;;;21.80;45.40;;;;;;4963841;28;92449;-59
2024/01/13 08:44:41;;;;;;;4.68;2.85;;;21.80;45.50;;;;;;4951820;28;94554;-59
2024/01/13 08:47:09;;;;;;;6.00;2.20;;;21.80;45.40;;;;;;4946758;28;96402;-59
2024/01/13 08:49:36;;;;;;;5.03;2.83;;;21.80;45.60;;;;;;4949510;28;92640;-60
2024/01/13 08:52:02;;;;;;;5.78;2.33;;;21.90;45.70;;;;;;4928973;28;92405;-60
2024/01/13 08:54:27;;;;;;;4.13;2.13;;;21.90;45.70;;;;;;4956111;28;93665;-60
2024/01/13 08:56:53;;;;;;;6.47;2.50;;;21.90;46.00;;;;;;4948251;28;97130;-60
2024/01/13 08:59:19;;;;;;;6.25;2.03;;;21.90;46.10;;;;;;4945780;28;93424;-59
2024/01/13 09:01:46;;;;;;;8.82;2.60;;;22.00;46.00;;;;;;4951259;28;91247;-60
2024/01/13 09:04:13;;;;;;;5.30;2.55;;;22.00;46.10;;;;;;4965553;28;94247;-59
2024/01/13 09:06:39;;;;;;;6.85;2.05;;;22.10;46.10;;;;;;4942834;28;92934;-60
2024/01/13 09:09:05;;;;;;;6.38;1.80;;;22.10;46.10;;;;;;4961878;28;93910;-60
2024/01/13 09:11:31;;;;;;;4.38;2.22;;;22.10;45.80;;;;;;4946468;28;92851;-60
2024/01/13 09:13:57;;;;;;;7.10;2.40;;;22.20;45.70;;;;;;4954459;28;92693;-59
2024/01/13 09:16:23;;;;;;;5.63;2.10;;;22.20;45.70;;;;;;4939275;28;93532;-59
2024/01/13 09:18:49;;;;;;;2.53;1.63;;;22.20;45.70;;;;;;4939982;28;93073;-58
2024/01/13 09:21:17;;;;;;;4.10;2.08;;;22.20;45.70;;;;;;4946227;28;92627;-59
2024/01/13 09:23:43;;;;;;;6.30;2.07;;;22.20;45.80;;;;;;4948576;28;93738;-59
2024/01/13 09:26:09;;;;;;;6.25;2.13;;;22.20;45.60;;;;;;4949856;28;91904;-59
2024/01/13 09:28:35;;;;;;;3.92;2.00;;;22.30;45.80;;;;;;4946792;28;92478;-59
2024/01/13 09:31:00;;;;;;;3.42;1.73;;;22.30;45.80;;;;;;4945550;28;92520;-58
2024/01/13 09:33:26;;;;;;;5.45;2.47;;;22.30;45.60;;;;;;4946717;28;97834;-59
2024/01/13 09:35:52;;;;;;;3.60;1.65;;;22.30;45.80;;;;;;4945154;28;93760;-59
2024/01/13 09:38:17;;;;;;;6.07;2.50;;;22.30;45.90;;;;;;4958385;28;92768;-58
2024/01/13 09:40:43;;;;;;;3.53;1.95;;;22.40;45.80;;;;;;4948056;28;92784;-59
2024/01/13 09:43:24;;;;;;;4.38;1.67;;;22.30;45.90;;;;;;4953364;28;94360;-59
2024/01/13 09:45:50;;;;;;;3.75;1.92;;;22.40;46.10;;;;;;4948939;28;94480;-59
2024/01/13 09:48:18;;;;;;;3.88;1.85;;;22.40;46.20;;;;;;4948340;28;92290;-59
2024/01/13 09:50:48;;;;;;;4.80;2.00;;;22.40;46.00;;;;;;4939491;28;92302;-60
2024/01/13 09:53:29;;;;;;;4.22;2.25;;;22.50;46.20;;;;;;4945571;28;93240;-60
2024/01/13 09:56:08;;;;;;;4.03;2.15;;;22.50;46.20;;;;;;4950118;28;93230;-59
2024/01/13 09:58:34;;;;;;;;;;;22.50;46.20;;;;;;4969325;28;93711;-59
2024/01/13 10:01:00;;;;;;;4.65;1.88;;;22.50;46.20;;;;;;4948878;28;93489;-59
2024/01/13 10:03:26;;;;;;;3.80;1.80;;;22.50;45.80;;;;;;4958396;28;93732;-59
2024/01/13 10:05:55;;;;;;;6.40;2.33;;;22.60;45.80;;;;;;4961474;28;94965;-59
2024/01/13 10:08:30;;;;;;;6.05;1.90;;;22.60;45.90;;;;;;4929398;28;93090;-59
2024/01/13 10:10:56;;;;;;;6.22;2.40;;;22.60;45.80;;;;;;4928864;28;92997;-59
2024/01/13 10:13:25;;;;;;;15.30;3.63;;;22.60;45.70;;;;;;4962462;28;95702;-59
2024/01/13 10:15:54;;;;;;;18.02;5.00;;;22.60;45.50;;;;;;4946831;28;92893;-59
2024/01/13 10:18:23;;;;;;;17.95;6.00;;;22.60;45.70;;;;;;4944796;28;92461;-59
2024/01/13 10:20:49;;;;;;;17.10;6.93;;;22.60;45.00;;;;;;4947412;28;92263;-59
2024/01/13 10:23:16;;;;;;;22.40;7.18;;;22.60;44.80;;;;;;4945496;28;94848;-60
2024/01/13 10:25:42;;;;;;;18.25;6.63;;;22.60;44.80;;;;;;4950926;28;93794;-59
2024/01/13 10:28:08;;;;;;;15.63;5.85;;;22.70;45.20;;;;;;4962782;28;92308;-59
2024/01/13 10:30:34;;;;;;;25.90;7.30;;;22.60;45.30;;;;;;4945367;28;93380;-59
2024/01/13 10:33:00;;;;;;;26.15;8.50;;;22.60;45.80;;;;;;4950953;28;93115;-59
2024/01/13 10:35:29;;;;;;;26.88;7.43;;;22.50;45.70;;;;;;4950533;28;92921;-59
2024/01/13 10:37:58;;;;;;;20.55;6.70;;;22.40;45.70;;;;;;4944393;28;92510;-59
2024/01/13 10:40:24;;;;;;;19.70;7.43;;;22.50;46.00;;;;;;4962713;28;91967;-59
2024/01/13 10:42:55;;;;;;;18.33;5.82;;;22.50;46.50;;;;;;4926817;28;95879;-59
2024/01/13 10:45:25;;;;;;;22.98;7.03;;;22.50;46.60;;;;;;4943485;28;93361;-59
2024/01/13 10:47:52;;;;;;;13.95;5.80;;;22.50;46.10;;;;;;4942552;28;93963;-59
2024/01/13 10:50:19;;;;;;;28.70;7.90;;;22.50;45.60;;;;;;4946015;28;93342;-61
2024/01/13 10:53:16;;;;;;;30.60;8.38;;;22.50;44.30;;;;;;4960483;28;94025;-60
2024/01/13 10:55:43;;;;;;;19.73;6.32;;;22.40;44.10;;;;;;4945767;28;92747;-60
2024/01/13 10:58:10;;;;;;;20.58;6.93;;;22.40;44.60;;;;;;4954112;28;93216;-59
2024/01/13 11:00:36;;;;;;;20.65;6.80;;;22.30;44.90;;;;;;4947799;28;92640;-60
2024/01/13 11:06:25;;;;;;;20.80;6.80;;;22.20;46.40;;;;;;4944244;28;92750;-58
2024/01/13 11:08:52;;;;;;;18.75;7.10;;;22.20;46.90;;;;;;4948448;28;92434;-60
2024/01/13 11:11:38;;;;;;;17.38;7.50;;;22.20;47.10;;;;;;4945561;28;92376;-60
2024/01/13 11:14:09;;;;;;;23.10;6.10;;;22.20;47.40;;;;;;4948260;28;93738;-60
2024/01/13 11:16:37;;;;;;;20.17;5.82;;;22.20;47.20;;;;;;4946622;28;94753;-60
2024/01/13 11:19:04;;;;;;;19.80;7.25;;;22.30;47.50;;;;;;4946364;28;92814;-60
2024/01/13 11:21:32;;;;;;;24.17;6.75;;;22.30;47.50;;;;;;4945588;28;92607;-61
2024/01/13 11:24:07;;;;;;;12.83;5.67;;;22.30;47.70;;;;;;4958719;28;94721;-61
2024/01/13 11:26:37;;;;;;;15.18;5.43;;;22.30;47.90;;;;;;4942987;28;92381;-60
2024/01/13 11:29:19;;;;;;;17.05;5.85;;;22.30;47.80;;;;;;4959374;28;93588;-61
2024/01/13 11:31:48;;;;;;;17.08;5.53;;;22.30;47.70;;;;;;4943606;28;91257;-60
2024/01/13 11:34:17;;;;;;;11.88;5.43;;;22.30;47.40;;;;;;4947023;28;94478;-60
2024/01/13 11:36:50;;;;;;;;;;;22.20;48.10;;;;;;4946436;28;93480;-60
2024/01/13 11:39:18;;;;;;;13.95;5.75;;;22.20;47.70;;;;;;4950631;28;93062;-60
2024/01/13 11:41:46;;;;;;;18.50;6.05;;;22.20;47.70;;;;;;4960997;28;92948;-60
2024/01/13 11:44:38;;;;;;;14.63;6.40;;;22.20;48.00;;;;;;4940881;28;95903;-60
2024/01/13 11:47:05;;;;;;;16.02;5.75;;;22.20;47.70;;;;;;4941600;28;92852;-60
2024/01/13 11:49:43;;;;;;;16.05;5.57;;;22.20;47.90;;;;;;4946295;28;91949;-60
2024/01/13 11:52:09;;;;;;;14.90;5.45;;;22.20;48.00;;;;;;4946268;28;92710;-60
2024/01/13 11:54:36;;;;;;;16.65;5.80;;;22.20;47.90;;;;;;4946879;28;92954;-60
2024/01/13 11:57:10;;;;;;;13.73;5.90;;;22.20;48.10;;;;;;4964906;28;91953;-60
2024/01/13 11:59:36;;;;;;;16.52;5.30;;;22.20;48.20;;;;;;4950037;28;92515;-60
2024/01/13 12:02:02;;;;;;;15.63;5.82;;;22.20;48.10;;;;;;4948579;28;93323;-60
2024/01/13 12:04:29;;;;;;;10.48;4.60;;;22.20;48.10;;;;;;4951160;28;96431;-60
2024/01/13 12:06:57;;;;;;;14.73;5.32;;;22.20;48.10;;;;;;4927169;28;93780;-60
2024/01/13 12:09:28;;;;;;;11.27;5.22;;;22.20;48.00;;;;;;4927687;28;93359;-60
2024/01/13 12:11:55;;;;;;;13.32;5.50;;;22.20;48.10;;;;;;4937940;28;93734;-60
2024/01/13 12:14:35;;;;;;;15.80;5.55;;;22.20;48.20;;;;;;4946791;28;94520;-59
2024/01/13 12:17:01;;;;;;;;;;;22.10;48.30;;;;;;4951963;28;93922;-60
2024/01/13 12:19:29;;;;;;;14.10;5.40;;;22.10;48.50;;;;;;4952601;28;93184;-60
2024/01/13 12:21:54;;;;;;;11.57;4.80;;;22.20;48.50;;;;;;4946879;28;91756;-60
2024/01/13 12:24:28;;;;;;;13.27;5.78;;;22.20;48.70;;;;;;4946978;28;93741;-60
2024/01/13 12:26:54;;;;;;;10.30;4.32;;;22.20;48.80;;;;;;4954222;28;94764;-60
2024/01/13 12:29:30;;;;;;;10.52;4.10;;;22.20;48.70;;;;;;4945261;28;93328;-60
2024/01/13 12:31:59;;;;;;;13.05;4.78;;;22.20;48.60;;;;;;4944548;28;93110;-60
2024/01/13 12:34:25;;;;;;;9.88;4.63;;;22.20;48.60;;;;;;4955286;28;93178;-60
2024/01/13 12:36:52;;;;;;;9.77;4.43;;;22.20;48.70;;;;;;4945280;28;93281;-60
2024/01/13 12:39:19;;;;;;;9.48;4.20;;;22.20;48.50;;;;;;4952645;28;92365;-59
2024/01/13 12:41:47;;;;;;;11.82;5.07;;;22.20;48.60;;;;;;4950910;28;92752;-60
2024/01/13 12:44:13;;;;;;;10.73;4.50;;;22.20;48.80;;;;;;4948313;28;93716;-60
2024/01/13 12:46:40;;;;;;;11.75;4.47;;;22.20;48.80;;;;;;4934216;28;93652;-60
2024/01/13 12:49:13;;;;;;;11.07;4.32;;;22.20;48.80;;;;;;4962546;28;92726;-60
2024/01/13 12:51:46;;;;;;;14.68;4.85;;;22.20;48.90;;;;;;4957461;28;92592;-60
2024/01/13 12:54:16;;;;;;;9.95;4.65;;;22.10;48.90;;;;;;4944907;28;94114;-60
2024/01/13 12:56:43;;;;;;;14.52;5.00;;;22.10;49.00;;;;;;4952223;28;94227;-60
2024/01/13 12:59:10;;;;;;;11.73;4.38;;;22.10;49.10;;;;;;4955845;28;92090;-60